createdAt,value
2023-02-01T00:00:41.058Z,13.20
2023-02-01T00:03:09.524Z,13.20
2023-02-01T00:05:37.384Z,13.20
2023-02-01T00:08:05.698Z,13.20
2023-02-01T00:10:33.592Z,13.20
2023-02-01T00:13:01.476Z,13.20
2023-02-01T00:15:30.733Z,13.20
2023-02-01T00:17:58.591Z,13.20
2023-02-01T00:20:26.441Z,13.20
2023-02-01T00:22:54.320Z,13.30
2023-02-01T00:25:22.203Z,13.30
2023-02-01T00:27:51.576Z,13.30
2023-02-01T00:30:20.912Z,13.30
2023-02-01T00:32:50.291Z,13.30
2023-02-01T00:35:18.193Z,13.30
2023-02-01T00:37:46.027Z,13.30
2023-02-01T00:40:14.631Z,13.30
2023-02-01T00:42:42.487Z,13.20
2023-02-01T00:45:11.522Z,13.30
2023-02-01T00:47:39.464Z,13.30
2023-02-01T00:50:09.583Z,13.30
2023-02-01T00:52:37.614Z,13.20
2023-02-01T00:55:06.141Z,13.30
2023-02-01T00:57:33.980Z,13.30
2023-02-01T01:00:01.852Z,13.30
2023-02-01T01:02:29.724Z,13.30
2023-02-01T01:04:57.582Z,13.30
2023-02-01T01:07:26.783Z,13.30
2023-02-01T01:09:54.607Z,13.30
2023-02-01T01:12:22.471Z,13.30
2023-02-01T01:14:50.487Z,13.30
2023-02-01T01:17:18.784Z,13.30
2023-02-01T01:19:46.630Z,13.30
2023-02-01T01:22:14.489Z,13.30
2023-02-01T01:24:43.716Z,13.30
2023-02-01T01:27:11.560Z,13.30
2023-02-01T01:29:39.404Z,13.30
2023-02-01T01:32:07.267Z,13.30
2023-02-01T01:34:35.121Z,13.30
2023-02-01T01:37:02.977Z,13.30
2023-02-01T01:39:31.786Z,13.30
2023-02-01T01:42:01.169Z,13.30
2023-02-01T01:45:01.673Z,13.30
2023-02-01T01:47:37.813Z,13.30
2023-02-01T01:50:08.618Z,13.30
2023-02-01T01:52:39.042Z,13.30
2023-02-01T01:55:07.652Z,13.30
2023-02-01T01:57:40.184Z,13.30
2023-02-01T02:00:12.127Z,13.30
2023-02-01T02:02:41.740Z,13.30
2023-02-01T02:05:11.086Z,13.30
2023-02-01T02:07:41.901Z,13.30
2023-02-01T02:10:12.632Z,13.30
2023-02-01T02:12:44.234Z,13.30
2023-02-01T02:15:14.221Z,13.30
2023-02-01T02:17:50.240Z,13.30
2023-02-01T02:20:49.053Z,13.40
2023-02-01T02:23:58.895Z,13.30
2023-02-01T02:26:37.046Z,13.30
2023-02-01T02:29:51.910Z,13.40
2023-02-01T02:32:56.174Z,13.40
2023-02-01T02:35:32.415Z,13.40
2023-02-01T02:38:11.283Z,13.40
2023-02-01T02:40:47.419Z,13.40
2023-02-01T02:43:52.298Z,13.40
2023-02-01T02:46:41.929Z,13.40
2023-02-01T02:49:15.361Z,13.40
2023-02-01T02:52:05.840Z,13.40
2023-02-01T02:54:49.892Z,13.40
2023-02-01T02:57:39.928Z,13.40
2023-02-01T03:00:30.333Z,13.40
2023-02-01T03:03:15.844Z,13.30
2023-02-01T03:05:47.065Z,13.40
2023-02-01T03:08:19.128Z,13.40
2023-02-01T03:10:53.650Z,13.30
2023-02-01T03:13:27.425Z,13.40
2023-02-01T03:16:02.707Z,13.30
2023-02-01T03:18:35.930Z,13.40
2023-02-01T03:21:10.263Z,13.40
2023-02-01T03:23:40.431Z,13.40
2023-02-01T03:26:12.763Z,13.40
2023-02-01T03:28:43.753Z,13.40
2023-02-01T03:31:12.009Z,13.40
2023-02-01T03:33:39.977Z,13.40
2023-02-01T03:36:16.967Z,13.40
2023-02-01T03:38:53.973Z,13.40
2023-02-01T03:41:27.728Z,13.40
2023-02-01T03:44:00.669Z,13.40
2023-02-01T03:46:34.702Z,13.40
2023-02-01T03:49:05.649Z,13.40
2023-02-01T03:51:34.833Z,13.40
2023-02-01T03:54:05.443Z,13.40
2023-02-01T03:56:34.897Z,13.40
2023-02-01T03:59:02.785Z,13.40
2023-02-01T04:01:32.298Z,13.40
2023-02-01T04:04:01.017Z,13.40
2023-02-01T04:06:28.887Z,13.40
2023-02-01T04:08:56.734Z,13.40
2023-02-01T04:11:26.109Z,13.40
2023-02-01T04:13:54.431Z,13.40
2023-02-01T04:16:22.297Z,13.40
2023-02-01T04:18:50.174Z,13.40
2023-02-01T04:21:18.038Z,13.40
2023-02-01T04:23:45.913Z,13.40
2023-02-01T04:26:13.798Z,13.40
2023-02-01T04:28:42.988Z,13.40
2023-02-01T04:31:10.925Z,13.40
2023-02-01T04:33:38.827Z,13.40
2023-02-01T04:36:07.069Z,13.40
2023-02-01T04:38:35.097Z,13.40
2023-02-01T04:41:03.322Z,13.40
2023-02-01T04:43:31.159Z,13.40
2023-02-01T04:46:00.449Z,13.40
2023-02-01T04:48:28.668Z,13.40
2023-02-01T04:50:56.915Z,13.40
2023-02-01T04:53:24.804Z,13.40
2023-02-01T04:55:52.635Z,13.40
2023-02-01T04:58:20.533Z,13.40
2023-02-01T05:00:48.382Z,13.40
2023-02-01T05:03:17.633Z,13.50
2023-02-01T05:05:45.697Z,13.40
2023-02-01T05:08:13.557Z,13.40
2023-02-01T05:10:41.380Z,13.40
2023-02-01T05:13:27.755Z,13.50
2023-02-01T05:15:55.802Z,13.50
2023-02-01T05:18:25.034Z,13.50
2023-02-01T05:20:52.865Z,13.50
2023-02-01T05:23:20.748Z,13.50
2023-02-01T05:25:48.617Z,13.50
2023-02-01T05:28:16.572Z,13.40
2023-02-01T05:30:44.596Z,13.50
2023-02-01T05:33:12.615Z,13.50
2023-02-01T05:35:41.838Z,13.40
2023-02-01T05:38:09.727Z,13.50
2023-02-01T05:40:37.720Z,13.50
2023-02-01T05:43:05.576Z,13.40
2023-02-01T05:45:33.443Z,13.50
2023-02-01T05:48:01.318Z,13.50
2023-02-01T05:50:29.179Z,13.40
2023-02-01T05:52:58.444Z,13.50
2023-02-01T05:55:26.368Z,13.40
2023-02-01T05:57:54.198Z,13.50
2023-02-01T06:00:23.384Z,13.50
2023-02-01T06:02:51.615Z,13.40
2023-02-01T06:05:19.476Z,13.40
2023-02-01T06:07:47.661Z,13.50
2023-02-01T06:10:17.396Z,13.50
2023-02-01T06:12:45.681Z,13.50
2023-02-01T06:15:13.884Z,13.50
2023-02-01T06:17:42.256Z,13.40
2023-02-01T06:20:12.153Z,13.50
2023-02-01T06:22:40.444Z,13.50
2023-02-01T06:25:10.964Z,13.50
2023-02-01T06:27:40.265Z,13.40
2023-02-01T06:30:09.691Z,13.50
2023-02-01T06:32:37.887Z,13.50
2023-02-01T06:35:06.824Z,13.50
2023-02-01T06:37:35.101Z,13.50
2023-02-01T06:40:02.976Z,13.50
2023-02-01T06:42:30.805Z,13.50
2023-02-01T06:44:59.996Z,13.50
2023-02-01T06:47:27.972Z,13.50
2023-02-01T06:49:55.839Z,13.50
2023-02-01T06:52:23.721Z,13.50
2023-02-01T06:54:51.572Z,13.50
2023-02-01T06:57:19.425Z,13.50
2023-02-01T06:59:47.309Z,13.50
2023-02-01T07:02:16.593Z,13.50
2023-02-01T07:04:44.514Z,13.50
2023-02-01T07:07:13.110Z,13.50
2023-02-01T07:09:40.980Z,13.50
2023-02-01T07:12:09.183Z,13.50
2023-02-01T07:14:37.021Z,13.50
2023-02-01T07:17:04.974Z,13.50
2023-02-01T07:19:34.166Z,13.50
2023-02-01T07:22:02.049Z,13.50
2023-02-01T07:24:31.519Z,13.50
2023-02-01T07:26:59.372Z,13.50
2023-02-01T07:29:27.213Z,13.50
2023-02-01T07:31:55.130Z,13.50
2023-02-01T07:34:23.095Z,13.50
2023-02-01T07:36:52.375Z,13.50
2023-02-01T07:39:20.206Z,13.50
2023-02-01T07:41:48.368Z,13.50
2023-02-01T07:44:17.837Z,13.50
2023-02-01T07:46:45.711Z,13.50
2023-02-01T07:49:14.909Z,13.50
2023-02-01T07:51:42.796Z,13.50
2023-02-01T07:54:12.046Z,13.50
2023-02-01T07:56:39.926Z,13.50
2023-02-01T07:59:08.630Z,13.50
2023-02-01T08:01:35.853Z,13.50
2023-02-01T08:04:04.557Z,13.50
2023-02-01T08:06:34.826Z,13.50
2023-02-01T08:09:02.883Z,13.50
2023-02-01T08:11:32.712Z,13.50
2023-02-01T08:14:00.744Z,13.50
2023-02-01T08:16:29.234Z,13.50
2023-02-01T08:18:57.289Z,13.50
2023-02-01T08:21:26.880Z,13.50
2023-02-01T08:23:55.044Z,13.50
2023-02-01T08:26:25.457Z,13.50
2023-02-01T08:28:57.044Z,13.50
2023-02-01T08:31:26.831Z,13.50
2023-02-01T08:33:56.788Z,13.50
2023-02-01T08:36:26.011Z,13.50
2023-02-01T08:38:54.219Z,13.50
2023-02-01T08:41:23.780Z,13.50
2023-02-01T08:43:51.879Z,13.50
2023-02-01T08:46:21.168Z,13.50
2023-02-01T08:48:49.805Z,13.50
2023-02-01T08:51:19.692Z,13.50
2023-02-01T08:53:47.948Z,13.50
2023-02-01T08:56:18.545Z,13.50
2023-02-01T08:58:46.674Z,13.50
2023-02-01T09:01:16.246Z,13.50
2023-02-01T09:03:45.560Z,13.50
2023-02-01T09:06:16.114Z,13.50
2023-02-01T09:08:44.575Z,13.50
2023-02-01T09:11:15.199Z,13.50
2023-02-01T09:13:43.736Z,13.50
2023-02-01T09:16:11.913Z,13.50
2023-02-01T09:18:50.349Z,13.50
2023-02-01T09:21:29.385Z,13.50
2023-02-01T09:23:57.264Z,13.50
2023-02-01T09:26:32.165Z,13.50
2023-02-01T09:29:00.713Z,13.50
2023-02-01T09:31:28.702Z,13.50
2023-02-01T09:33:56.700Z,13.50
2023-02-01T09:36:25.005Z,13.60
2023-02-01T09:38:54.576Z,13.60
2023-02-01T09:41:34.487Z,13.60
2023-02-01T09:44:09.395Z,13.50
2023-02-01T09:46:37.462Z,13.50
2023-02-01T09:49:11.640Z,13.60
2023-02-01T09:51:44.634Z,13.60
2023-02-01T09:54:18.093Z,13.50
2023-02-01T09:56:50.607Z,13.60
2023-02-01T09:59:32.812Z,13.50
2023-02-01T10:02:01.573Z,13.50
2023-02-01T10:04:29.823Z,13.50
2023-02-01T10:07:10.495Z,13.60
2023-02-01T10:09:49.098Z,13.50
2023-02-01T10:12:50.693Z,13.60
2023-02-01T10:15:38.108Z,13.50
2023-02-01T10:18:43.936Z,13.50
2023-02-01T10:21:21.497Z,13.60
2023-02-01T10:24:09.053Z,13.60
2023-02-01T10:26:50.159Z,13.50
2023-02-01T10:29:20.533Z,13.50
2023-02-01T10:31:48.805Z,13.60
2023-02-01T10:34:22.939Z,13.50
2023-02-01T10:36:57.727Z,13.50
2023-02-01T10:39:26.035Z,13.50
2023-02-01T10:41:57.741Z,13.60
2023-02-01T10:44:28.600Z,13.50
2023-02-01T10:46:56.872Z,13.60
2023-02-01T10:49:30.230Z,13.60
2023-02-01T10:52:04.261Z,13.60
2023-02-01T10:54:38.905Z,13.60
2023-02-01T10:57:11.903Z,13.60
2023-02-01T10:59:39.814Z,13.60
2023-02-01T11:02:22.112Z,13.60
2023-02-01T11:04:50.072Z,13.60
2023-02-01T11:07:24.886Z,13.60
2023-02-01T11:09:55.850Z,13.60
2023-02-01T11:12:30.881Z,13.60
2023-02-01T11:15:14.483Z,13.60
2023-02-01T11:17:45.184Z,13.60
2023-02-01T11:20:16.896Z,13.60
2023-02-01T11:22:49.332Z,13.60
2023-02-01T11:25:18.967Z,13.60
2023-02-01T11:27:54.799Z,13.60
2023-02-01T11:30:32.157Z,13.60
2023-02-01T11:33:01.355Z,13.60
2023-02-01T11:35:31.675Z,13.60
2023-02-01T11:38:01.178Z,13.60
2023-02-01T11:40:31.549Z,13.60
2023-02-01T11:43:02.255Z,13.60
2023-02-01T11:45:32.661Z,13.60
2023-02-01T11:48:01.563Z,13.60
2023-02-01T11:50:38.770Z,13.60
2023-02-01T11:53:22.127Z,13.60
2023-02-01T11:56:01.882Z,13.60
2023-02-01T11:58:59.117Z,13.60
2023-02-01T12:01:46.045Z,13.60
2023-02-01T12:04:59.995Z,13.60
2023-02-01T12:07:38.363Z,13.60
2023-02-01T12:10:23.087Z,13.60
2023-02-01T12:13:12.551Z,13.60
2023-02-01T12:15:56.798Z,13.60
2023-02-01T12:18:50.932Z,13.60
2023-02-01T12:21:34.727Z,13.60
2023-02-01T12:24:20.331Z,13.60
2023-02-01T12:26:58.664Z,13.60
2023-02-01T12:29:47.422Z,13.60
2023-02-01T12:32:27.805Z,13.60
2023-02-01T12:35:25.987Z,13.60
2023-02-01T12:38:06.366Z,13.60
2023-02-01T12:40:48.035Z,13.60
2023-02-01T12:43:22.784Z,13.60
2023-02-01T12:45:55.744Z,13.60
2023-02-01T12:48:32.025Z,13.60
2023-02-01T12:51:04.342Z,13.60
2023-02-01T12:53:43.089Z,13.60
2023-02-01T12:56:16.518Z,13.60
2023-02-01T12:58:47.966Z,13.60
2023-02-01T13:01:24.177Z,13.60
2023-02-01T13:04:01.047Z,13.60
2023-02-01T13:06:34.901Z,13.60
2023-02-01T13:09:08.487Z,13.60
2023-02-01T13:11:39.615Z,13.60
2023-02-01T13:14:16.043Z,13.60
2023-02-01T13:16:47.246Z,13.60
2023-02-01T13:19:21.438Z,13.60
2023-02-01T13:21:53.372Z,13.60
2023-02-01T13:24:32.083Z,13.60
2023-02-01T13:27:00.047Z,13.60
2023-02-01T13:29:30.392Z,13.60
2023-02-01T13:33:51.634Z,13.60
2023-02-01T13:35:46.703Z,13.60
2023-02-01T13:38:48.129Z,13.60
2023-02-01T13:41:29.198Z,13.60
2023-02-01T13:44:00.250Z,13.60
2023-02-01T13:46:29.507Z,13.60
2023-02-01T13:49:01.123Z,13.60
2023-02-01T13:51:39.879Z,13.60
2023-02-01T13:54:08.102Z,13.60
2023-02-01T13:56:43.688Z,13.60
2023-02-01T13:59:47.143Z,13.60
2023-02-01T14:02:48.305Z,13.60
2023-02-01T14:05:59.459Z,13.60
2023-02-01T14:08:45.097Z,13.60
2023-02-01T14:11:36.896Z,13.60
2023-02-01T14:14:44.621Z,13.60
2023-02-01T14:17:37.557Z,13.60
2023-02-01T14:20:46.556Z,13.60
2023-02-01T14:23:18.629Z,13.60
2023-02-01T14:25:49.482Z,13.60
2023-02-01T14:28:28.505Z,13.60
2023-02-01T14:30:58.599Z,13.60
2023-02-01T14:33:28.964Z,13.60
2023-02-01T14:36:09.161Z,13.70
2023-02-01T14:38:39.495Z,13.60
2023-02-01T14:41:35.439Z,13.60
2023-02-01T14:44:27.767Z,13.60
2023-02-01T14:47:30.645Z,13.60
2023-02-01T14:50:33.345Z,13.60
2023-02-01T14:53:29.255Z,13.60
2023-02-01T14:56:04.058Z,13.60
2023-02-01T14:58:41.865Z,13.60
2023-02-01T15:01:19.327Z,13.60
2023-02-01T15:03:54.283Z,13.60
2023-02-01T15:06:34.751Z,13.60
2023-02-01T15:09:09.510Z,13.60
2023-02-01T15:11:55.998Z,13.60
2023-02-01T15:14:25.600Z,13.70
2023-02-01T15:16:55.498Z,13.60
2023-02-01T15:19:26.028Z,13.60
2023-02-01T15:21:55.673Z,13.70
2023-02-01T15:24:29.063Z,13.70
2023-02-01T15:26:58.122Z,13.70
2023-02-01T15:29:30.326Z,13.60
2023-02-01T15:31:58.234Z,13.70
2023-02-01T15:34:45.697Z,13.60
2023-02-01T15:37:16.533Z,13.70
2023-02-01T15:40:06.276Z,13.60
2023-02-01T15:42:34.312Z,13.70
2023-02-01T15:45:03.833Z,13.60
2023-02-01T15:47:33.837Z,13.60
2023-02-01T15:50:03.344Z,13.60
2023-02-01T15:52:37.160Z,13.70
2023-02-01T15:55:10.353Z,13.60
2023-02-01T15:57:43.173Z,13.60
2023-02-01T16:00:26.248Z,13.60
2023-02-01T16:02:56.041Z,13.70
2023-02-01T16:05:34.625Z,13.60
2023-02-01T16:08:05.716Z,13.60
2023-02-01T16:10:39.888Z,13.70
2023-02-01T16:13:08.107Z,13.60
2023-02-01T16:15:37.572Z,13.70
2023-02-01T16:18:06.159Z,13.70
2023-02-01T16:20:36.167Z,13.70
2023-02-01T16:23:04.212Z,13.60
2023-02-01T16:25:32.263Z,13.60
2023-02-01T16:28:00.261Z,13.70
2023-02-01T16:30:28.627Z,13.60
2023-02-01T16:32:59.572Z,13.60
2023-02-01T16:35:29.422Z,13.70
2023-02-01T16:37:57.388Z,13.70
2023-02-01T16:40:25.347Z,13.70
2023-02-01T16:42:56.143Z,13.60
2023-02-01T16:45:24.468Z,13.60
2023-02-01T16:47:58.717Z,13.60
2023-02-01T16:50:28.554Z,13.70
2023-02-01T16:52:56.404Z,13.70
2023-02-01T16:55:24.678Z,13.70
2023-02-01T16:57:52.905Z,13.70
2023-02-01T17:00:25.032Z,13.70
2023-02-01T17:02:53.714Z,13.70
2023-02-01T17:05:23.737Z,13.60
2023-02-01T17:07:52.283Z,13.70
2023-02-01T17:10:33.263Z,13.70
2023-02-01T17:13:02.405Z,13.70
2023-02-01T17:15:36.708Z,13.70
2023-02-01T17:18:05.108Z,13.70
2023-02-01T17:20:34.592Z,13.70
2023-02-01T17:23:02.939Z,13.70
2023-02-01T17:25:32.603Z,13.70
2023-02-01T17:28:00.779Z,13.70
2023-02-01T17:30:28.863Z,13.70
2023-02-01T17:32:56.888Z,13.70
2023-02-01T17:35:28.541Z,13.70
2023-02-01T17:37:57.820Z,13.70
2023-02-01T17:40:25.988Z,13.70
2023-02-01T17:42:57.518Z,13.70
2023-02-01T17:45:36.373Z,13.70
2023-02-01T17:48:05.213Z,13.70
2023-02-01T17:50:35.928Z,13.70
2023-02-01T17:53:09.505Z,13.70
2023-02-01T17:55:39.256Z,13.70
2023-02-01T17:58:07.438Z,13.70
2023-02-01T18:00:37.365Z,13.70
2023-02-01T18:03:06.309Z,13.70
2023-02-01T18:05:41.177Z,13.70
2023-02-01T18:08:10.471Z,13.70
2023-02-01T18:10:38.659Z,13.70
2023-02-01T18:13:06.678Z,13.70
2023-02-01T18:15:34.695Z,13.70
2023-02-01T18:18:03.684Z,13.70
2023-02-01T18:20:32.078Z,13.70
2023-02-01T18:23:00.137Z,13.70
2023-02-01T18:25:34.048Z,13.70
2023-02-01T18:28:01.983Z,13.70
2023-02-01T18:30:32.529Z,13.70
2023-02-01T18:33:00.515Z,13.70
2023-02-01T18:35:31.049Z,13.70
2023-02-01T18:37:59.903Z,13.70
2023-02-01T18:40:30.940Z,13.70
2023-02-01T18:42:59.108Z,13.70
2023-02-01T18:45:36.482Z,13.70
2023-02-01T18:48:05.423Z,13.70
2023-02-01T18:50:34.773Z,13.70
2023-02-01T18:53:04.466Z,13.70
2023-02-01T18:55:34.422Z,13.70
2023-02-01T18:58:04.420Z,13.70
2023-02-01T19:00:32.688Z,13.70
2023-02-01T19:03:00.590Z,13.70
2023-02-01T19:05:29.068Z,13.70
2023-02-01T19:07:56.915Z,13.70
2023-02-01T19:10:25.276Z,13.70
2023-02-01T19:12:57.434Z,13.70
2023-02-01T19:15:26.411Z,13.70
2023-02-01T19:17:55.724Z,13.70
2023-02-01T19:20:26.002Z,13.70
2023-02-01T19:22:55.359Z,13.70
2023-02-01T19:25:25.945Z,13.70
2023-02-01T19:27:55.542Z,13.70
2023-02-01T19:30:25.052Z,13.70
2023-02-01T19:32:53.389Z,13.70
2023-02-01T19:35:22.653Z,13.70
2023-02-01T19:37:50.734Z,13.70
2023-02-01T19:40:20.390Z,13.70
2023-02-01T19:42:48.703Z,13.70
2023-02-01T19:45:18.161Z,13.70
2023-02-01T19:47:46.091Z,13.70
2023-02-01T19:50:19.700Z,13.70
2023-02-01T19:52:47.884Z,13.70
2023-02-01T19:55:15.910Z,13.70
2023-02-01T19:57:44.854Z,13.70
2023-02-01T20:00:15.927Z,13.70
2023-02-01T20:02:46.223Z,13.70
2023-02-01T20:05:15.148Z,13.70
2023-02-01T20:07:43.072Z,13.70
2023-02-01T20:10:11.847Z,13.70
2023-02-01T20:12:40.406Z,13.70
2023-02-01T20:15:09.102Z,13.70
2023-02-01T20:17:36.995Z,13.70
2023-02-01T20:20:06.987Z,13.70
2023-02-01T20:22:34.908Z,13.70
2023-02-01T20:25:04.285Z,13.70
2023-02-01T20:27:33.149Z,13.70
2023-02-01T20:30:01.025Z,13.70
2023-02-01T20:32:28.920Z,13.70
2023-02-01T20:34:56.787Z,13.70
2023-02-01T20:37:26.259Z,13.70
2023-02-01T20:39:54.460Z,13.70
2023-02-01T20:42:22.389Z,13.70
2023-02-01T20:44:50.246Z,13.70
2023-02-01T20:47:18.087Z,13.70
2023-02-01T20:49:45.941Z,13.70
2023-02-01T20:52:14.152Z,13.70
2023-02-01T20:54:43.798Z,13.70
2023-02-01T20:57:11.735Z,13.70
2023-02-01T20:59:39.610Z,13.70
2023-02-01T21:02:08.685Z,13.70
2023-02-01T21:04:37.304Z,13.70
2023-02-01T21:07:05.224Z,13.70
2023-02-01T21:09:33.194Z,13.80
2023-02-01T21:12:02.526Z,13.70
2023-02-01T21:14:30.690Z,13.70
2023-02-01T21:16:58.597Z,13.70
2023-02-01T21:19:26.976Z,13.70
2023-02-01T21:21:55.221Z,13.80
2023-02-01T21:24:23.329Z,13.70
2023-02-01T21:26:51.242Z,13.70
2023-02-01T21:29:20.725Z,13.70
2023-02-01T21:31:48.652Z,13.70
2023-02-01T21:34:16.747Z,13.70
2023-02-01T21:36:44.602Z,13.80
2023-02-01T21:39:12.756Z,13.70
2023-02-01T21:41:58.113Z,13.80
2023-02-01T21:44:27.407Z,13.80
2023-02-01T21:46:56.343Z,13.80
2023-02-01T21:49:25.937Z,13.80
2023-02-01T21:51:54.109Z,13.70
2023-02-01T21:54:22.239Z,13.80
2023-02-01T21:56:50.143Z,13.70
2023-02-01T21:59:18.316Z,13.70
2023-02-01T22:01:47.566Z,13.80
2023-02-01T22:04:15.437Z,13.70
2023-02-01T22:06:46.644Z,13.80
2023-02-01T22:09:18.088Z,13.70
2023-02-01T22:11:46.079Z,13.80
2023-02-01T22:14:14.172Z,13.70
2023-02-01T22:16:42.641Z,13.80
2023-02-01T22:19:12.656Z,13.80
2023-02-01T22:21:42.076Z,13.70
2023-02-01T22:24:11.362Z,13.80
2023-02-01T22:26:39.766Z,13.80
2023-02-01T22:29:08.114Z,13.80
2023-02-01T22:31:36.291Z,13.80
2023-02-01T22:34:04.377Z,13.80
2023-02-01T22:36:33.709Z,13.80
2023-02-01T22:39:01.658Z,13.80
2023-02-01T22:41:29.535Z,13.80
2023-02-01T22:43:57.466Z,13.80
2023-02-01T22:46:26.343Z,13.80
2023-02-01T22:48:54.322Z,13.80
2023-02-01T22:51:24.272Z,13.80
2023-02-01T22:53:57.424Z,13.80
2023-02-01T22:56:26.481Z,13.80
2023-02-01T22:58:58.688Z,13.80
2023-02-01T23:01:26.842Z,13.80
2023-02-01T23:03:58.277Z,13.80
2023-02-01T23:06:26.915Z,13.80
2023-02-01T23:09:00.654Z,13.80
2023-02-01T23:11:29.333Z,13.80
2023-02-01T23:13:57.573Z,13.80
2023-02-01T23:16:25.666Z,13.80
2023-02-01T23:18:53.563Z,13.80
2023-02-01T23:21:23.313Z,13.80
2023-02-01T23:23:52.492Z,13.80
2023-02-01T23:26:23.075Z,13.80
2023-02-01T23:28:52.357Z,13.80
2023-02-01T23:31:20.493Z,13.80
2023-02-01T23:33:49.978Z,13.80
2023-02-01T23:36:18.529Z,13.80
2023-02-01T23:38:47.187Z,13.80
2023-02-01T23:41:17.663Z,13.80
2023-02-01T23:43:59.161Z,13.80
2023-02-01T23:46:29.686Z,13.80
2023-02-01T23:48:58.071Z,13.80
2023-02-01T23:51:26.655Z,13.80
2023-02-01T23:53:55.458Z,13.80
2023-02-01T23:56:25.829Z,13.90
2023-02-01T23:58:56.888Z,13.80
